West Newton, Pennsylvania
Current Conditions -  °F | °C
As of 11:53 PM on Saturday 25 Oct 2014 (Local Time) from KAGC Reporting Station
Clear Clear  
Wind Chill: 59°   Ceiling: Unl
Heat Index: 59°   Visibility: 10mi
Dew Point: 34°   Wind: 10mph
Humidity: 39%   Direction: 300°WNW
Pressure: 29.77"   Gusts: 20mph
Location:  40.21°N, 79.77°W
Report Text: KAGC 260353Z AUTO 30009G17KT 10SM CLR 15/01 A2977 RMK AO2 SLP083 T01500011 TSNO
Loading
Personal Weather Stations






























Interactive Weather Map
Tropical Storm Tracking
New forecast layout! Learn more

10-Day Weather Forecast

Advertisements
Track Severe Weather on mobile